CheckWX is a tool to help pilots better visualize weather data.  It is not intended as a substitute for an official pre-flight weather briefing.

19:05:36 UTC

KDAG METAR
Barstow-Daggett Airport
Daggett, California, USA
Current

16 mins ago

KDAG 221850Z AUTO 26010KT 10SM CLR 08/M06 A3000 RMK AO2 SLP160 T00781056
Observed
Feb-22 @ 18:50 UTC
Wind
  • 260° at 10 KTS
Visibility
10 SM
Flight Rules
VFR
Cloud Levels
  • Clear skies
Temperature
C / 46°F
Dewpoint
-6°C / 21°F
Humidity
37%
Altimeter
30" Hg
Pressure
1016 hPa
Previous

1 hour ago

KDAG 221750Z AUTO 29013KT 10SM CLR 07/M04 A2999 RMK AO2 SLP156 T00721044 10072 21006 51019
Observed
Feb-22 @ 17:50 UTC
Wind
  • 290° at 13 KTS
Visibility
10 SM
Flight Rules
VFR
Cloud Levels
  • Clear skies
Temperature
C / 45°F
Dewpoint
-4°C / 25°F
Humidity
46%
Altimeter
29.99" Hg
Pressure
1015.6 hPa
Previous

2 hours ago

KDAG 221650Z AUTO 31009KT 10SM CLR 05/M03 A2998 RMK AO2 SLP154 T00501028
Observed
Feb-22 @ 16:50 UTC
Wind
  • 310° at 9 KTS
Visibility
10 SM
Flight Rules
VFR
Cloud Levels
  • Clear skies
Temperature
C / 41°F
Dewpoint
-3°C / 27°F
Humidity
57%
Altimeter
29.98" Hg
Pressure
1015.4 hPa